createdAt,value
2023-05-25T08:20:42.149Z,4.72
2023-05-25T08:23:09.193Z,4.25
2023-05-25T08:25:36.070Z,4.60
2023-05-25T08:28:02.944Z,4.72
2023-05-25T08:30:30.689Z,4.93
2023-05-25T08:32:57.642Z,5.03
2023-05-25T08:35:24.697Z,4.82
2023-05-25T08:37:52.060Z,4.60
2023-05-25T08:40:22.570Z,4.55
2023-05-25T08:42:49.483Z,4.90
2023-05-25T08:45:26.899Z,3.92
2023-05-25T08:48:04.413Z,4.38
2023-05-25T08:50:33.684Z,4.65
2023-05-25T08:53:05.152Z,3.90
2023-05-25T08:55:36.502Z,3.03
2023-05-25T08:58:10.547Z,3.88
2023-05-25T09:00:53.550Z,4.13
2023-05-25T09:03:23.206Z,4.10
2023-05-25T09:05:51.236Z,3.45
2023-05-25T09:08:18.883Z,3.13
2023-05-25T09:10:46.309Z,3.38
2023-05-25T09:13:22.025Z,3.08
2023-05-25T09:15:50.658Z,3.03
2023-05-25T09:18:20.200Z,3.10
2023-05-25T09:20:47.807Z,4.13
2023-05-25T09:23:15.481Z,2.75
2023-05-25T09:25:43.914Z,2.10
2023-05-25T09:28:25.766Z,2.10
2023-05-25T09:30:54.490Z,3.17
2023-05-25T09:33:21.673Z,2.55
2023-05-25T09:35:48.822Z,2.63
2023-05-25T09:38:17.134Z,2.50
2023-05-25T09:40:45.445Z,2.25
2023-05-25T09:43:21.862Z,1.77
2023-05-25T09:45:53.067Z,2.17
2023-05-25T09:48:21.896Z,2.13
2023-05-25T09:50:50.135Z,2.17
2023-05-25T09:53:17.257Z,2.53
2023-05-25T09:55:52.327Z,2.63
2023-05-25T09:58:24.782Z,2.22
2023-05-25T10:00:54.708Z,2.42
2023-05-25T10:03:24.663Z,1.92
2023-05-25T10:05:53.377Z,2.17
2023-05-25T10:08:21.959Z,2.35
2023-05-25T10:10:50.185Z,2.47
2023-05-25T10:13:22.449Z,2.08
2023-05-25T10:15:53.957Z,2.30
2023-05-25T10:18:27.452Z,1.92
2023-05-25T10:21:02.468Z,1.52
2023-05-25T10:23:50.914Z,2.00
2023-05-25T10:26:24.394Z,1.58
2023-05-25T10:28:52.149Z,1.40
2023-05-25T10:31:19.289Z,1.50
2023-05-25T10:33:50.573Z,1.50
2023-05-25T10:36:21.308Z,1.75
2023-05-25T10:38:51.845Z,1.70
2023-05-25T10:41:20.371Z,1.48
2023-05-25T10:43:47.644Z,1.45
2023-05-25T10:46:15.318Z,1.30
2023-05-25T10:48:50.359Z,1.48
2023-05-25T10:51:20.659Z,1.38
2023-05-25T10:53:58.382Z,1.00
2023-05-25T10:56:25.242Z,1.23
2023-05-25T10:58:56.662Z,1.45
2023-05-25T11:01:23.690Z,1.02
2023-05-25T11:04:13.792Z,1.15
2023-05-25T11:06:40.732Z,1.42
2023-05-25T11:09:08.053Z,1.40
2023-05-25T11:11:44.461Z,1.45
2023-05-25T11:14:27.742Z,1.50
2023-05-25T11:17:16.350Z,1.45
2023-05-25T11:19:52.966Z,1.45
2023-05-25T11:22:21.652Z,1.40
2023-05-25T11:24:52.354Z,1.17
2023-05-25T11:27:29.655Z,1.20
2023-05-25T11:29:59.526Z,1.50
2023-05-25T11:32:28.326Z,1.30
2023-05-25T11:34:57.908Z,1.10
2023-05-25T11:37:29.041Z,1.45
2023-05-25T11:39:56.068Z,1.55
2023-05-25T11:42:26.309Z,1.45
2023-05-25T11:44:53.708Z,1.13
2023-05-25T11:47:25.055Z,1.15
2023-05-25T11:49:55.574Z,1.33
2023-05-25T11:52:23.127Z,1.45
2023-05-25T11:54:50.050Z,1.30
2023-05-25T11:57:25.271Z,1.17
2023-05-25T11:59:54.331Z,1.23
2023-05-25T12:02:23.388Z,1.10
2023-05-25T12:05:11.133Z,1.42
2023-05-25T12:07:44.808Z,1.35
2023-05-25T12:10:13.520Z,1.50
2023-05-25T12:12:47.903Z,1.63
2023-05-25T12:15:22.133Z,1.40
2023-05-25T12:17:49.637Z,1.13
2023-05-25T12:20:17.778Z,1.58
2023-05-25T14:13:20.554Z,2.28
2023-05-25T14:15:47.811Z,2.33
2023-05-25T14:18:14.971Z,2.70
2023-05-25T14:20:42.874Z,2.47
2023-05-25T14:23:15.094Z,2.55
2023-05-25T14:25:42.923Z,2.47
2023-05-25T14:28:12.744Z,2.40
2023-05-25T14:30:39.709Z,2.47
2023-05-25T14:33:06.824Z,3.50
2023-05-25T14:35:33.828Z,2.13
2023-05-25T14:38:00.677Z,2.67
2023-05-25T14:40:27.603Z,2.95
2023-05-25T14:42:55.581Z,2.83
2023-05-25T14:45:22.711Z,3.83
2023-05-25T14:47:51.998Z,3.00
2023-05-25T14:50:26.418Z,3.20
2023-05-25T14:52:54.679Z,2.88
2023-05-25T14:55:21.612Z,3.20
2023-05-25T14:57:48.625Z,2.58
2023-05-25T15:00:15.931Z,3.53
2023-05-25T15:02:42.882Z,2.70
2023-05-25T15:05:09.988Z,3.00
2023-05-25T15:07:36.936Z,3.00
2023-05-25T15:10:06.859Z,3.17
2023-05-25T15:12:33.843Z,3.22
2023-05-25T15:15:00.988Z,3.15
2023-05-25T15:17:28.138Z,2.42
2023-05-25T15:19:55.277Z,2.60
2023-05-25T15:22:22.163Z,3.05
2023-05-25T15:24:49.065Z,3.20
2023-05-25T15:27:16.029Z,2.85
2023-05-25T15:29:42.893Z,2.95
2023-05-25T15:32:13.177Z,2.40
2023-05-25T15:34:40.905Z,2.55
2023-05-25T15:37:07.760Z,2.95
2023-05-25T15:39:34.658Z,2.20
2023-05-25T15:42:01.886Z,2.90
2023-05-25T15:44:30.253Z,2.33
2023-05-25T15:46:57.381Z,3.45
2023-05-25T15:49:24.394Z,3.13
2023-05-25T15:51:53.299Z,3.00
2023-05-25T15:54:20.243Z,2.67
2023-05-25T15:56:47.180Z,3.75
2023-05-25T15:59:14.050Z,3.63
2023-05-25T16:01:41.136Z,2.55
2023-05-25T16:04:10.993Z,2.70
2023-05-25T16:06:40.743Z,2.97
2023-05-25T16:09:08.230Z,3.22
2023-05-25T16:11:35.509Z,3.00
2023-05-25T16:14:02.535Z,3.45
2023-05-25T16:16:29.666Z,3.35
2023-05-25T16:18:58.993Z,2.53
2023-05-25T16:21:26.053Z,3.15
2023-05-25T16:23:52.942Z,2.45
2023-05-25T16:26:19.841Z,2.45
2023-05-25T16:28:46.743Z,3.78
2023-05-25T16:31:16.604Z,2.90
2023-05-25T16:33:43.760Z,2.75
2023-05-25T16:36:12.867Z,2.45
2023-05-25T16:38:40.503Z,2.42
2023-05-25T16:41:07.582Z,2.63
2023-05-25T16:43:34.515Z,4.50
2023-05-25T16:46:01.483Z,3.22
2023-05-25T16:48:31.236Z,3.17
2023-05-25T16:50:58.433Z,2.72
2023-05-25T16:53:25.521Z,2.53
2023-05-25T16:55:53.854Z,3.00
2023-05-25T16:58:20.879Z,3.00
2023-05-25T17:00:47.931Z,4.07
2023-05-25T17:03:14.963Z,2.47
2023-05-25T17:05:42.158Z,4.43
2023-05-25T17:08:09.568Z,3.10
2023-05-25T17:10:36.471Z,3.22
2023-05-25T17:13:03.415Z,3.55
2023-05-25T17:15:30.559Z,3.15
2023-05-25T17:17:57.532Z,2.97
2023-05-25T17:20:25.832Z,3.72
2023-05-25T17:22:53.020Z,3.88
2023-05-25T17:25:21.695Z,3.40
2023-05-25T17:27:48.707Z,4.03
2023-05-25T17:30:18.405Z,3.38
2023-05-25T17:32:47.042Z,3.80
2023-05-25T17:35:14.548Z,3.03
2023-05-25T17:37:41.417Z,3.42
2023-05-25T17:40:08.819Z,2.97
2023-05-25T17:42:40.484Z,3.55
2023-05-25T17:45:11.736Z,3.70
2023-05-25T17:47:38.800Z,2.67
2023-05-25T17:50:06.731Z,3.35
2023-05-25T17:52:33.639Z,3.63
2023-05-25T17:55:03.471Z,2.22
2023-05-25T17:57:30.574Z,3.60
2023-05-25T17:59:57.458Z,2.75
2023-05-25T18:02:25.840Z,2.92
2023-05-25T18:04:52.867Z,2.15
2023-05-25T18:07:22.104Z,3.53
2023-05-25T18:09:49.276Z,2.50
2023-05-25T18:12:16.181Z,3.38
2023-05-25T18:14:43.215Z,3.05
2023-05-25T18:17:10.319Z,3.15
2023-05-25T18:19:37.370Z,3.88
2023-05-25T18:22:04.500Z,2.97
2023-05-25T18:24:32.622Z,2.75
2023-05-25T18:27:03.589Z,2.83
2023-05-25T18:29:31.580Z,3.03
2023-05-25T18:31:58.441Z,3.95
2023-05-25T18:34:25.559Z,4.45
2023-05-25T18:36:52.464Z,3.40
2023-05-25T18:39:24.572Z,3.05
2023-05-25T18:41:52.045Z,4.20
2023-05-25T18:44:21.099Z,3.40
2023-05-25T18:46:51.098Z,2.75
2023-05-25T18:49:18.075Z,3.00
2023-05-25T18:51:46.123Z,2.80
2023-05-25T18:54:13.533Z,2.90
2023-05-25T18:56:43.249Z,3.90
2023-05-25T18:59:10.117Z,2.80
2023-05-25T19:01:37.179Z,3.28
2023-05-25T19:04:04.265Z,2.90
2023-05-25T19:06:32.457Z,3.45
2023-05-25T19:09:00.480Z,3.45
2023-05-25T19:11:27.433Z,3.03
2023-05-25T19:13:57.900Z,3.40
2023-05-25T19:16:24.999Z,4.00
2023-05-25T19:18:55.538Z,2.95
2023-05-25T19:21:23.742Z,2.90
2023-05-25T19:23:55.917Z,2.28
2023-05-25T19:26:24.016Z,2.92
2023-05-25T19:28:55.551Z,2.80
2023-05-25T19:31:23.494Z,3.13
2023-05-25T19:33:54.351Z,3.00
2023-05-25T19:36:24.075Z,2.63
2023-05-25T19:38:53.739Z,3.00
2023-05-25T19:41:21.362Z,3.10
2023-05-25T19:43:48.424Z,3.25
2023-05-25T19:46:15.434Z,3.28
2023-05-25T19:48:43.320Z,3.10
2023-05-25T19:51:12.561Z,3.83
2023-05-25T19:53:40.721Z,3.22
2023-05-25T19:56:08.925Z,3.70
2023-05-25T19:58:36.953Z,2.88
2023-05-25T20:01:04.354Z,3.90
2023-05-25T20:03:33.628Z,3.95
2023-05-25T20:06:00.815Z,3.65
2023-05-25T20:08:30.306Z,3.53
2023-05-25T20:10:57.498Z,2.70
2023-05-25T20:13:28.700Z,3.42
2023-05-25T20:15:59.243Z,3.30
2023-05-25T20:18:26.196Z,3.42
2023-05-25T20:20:53.194Z,2.97
2023-05-25T20:23:22.513Z,2.63
2023-05-25T20:25:49.364Z,3.55
2023-05-25T20:28:16.794Z,3.67
2023-05-25T20:30:43.664Z,3.63
